メインページ
METAR-TAF:

METAR-TAF

空港 :

フェリックス・ウフェ=ボワニ国際空港

アビジャン, コートジボワール

緯度: 05-15N, 経度: 003-56W, 海抜: 7m

現時点の気象観測

当レポートは24分前の09:00(UTC)に作成
西/南西の風 7kt
気温 26°C
湿度 84%
気圧 1016 hPa
視程: 8000m
高度1200ftの雲は散在している

METAR: DIAP 190900Z 25007KT 8000 SCT012 26/23 Q1016 NOSIG

時間: 09:24 (09:24 UTC)

予報

当レポートは4時間4分前の05:20(UTC)に作成
予報は19日の 06時(UTC)から 20日の 12時(UTC)まで有効
西/南西の風 10kt
視程: 8000m
高度1200ftの雲は散在している
高度4000ftの千切れ雲あり
確率 40%
19日の 06時(UTC)から 19日の 12時(UTC)まで
高度1000ftの千切れ雲あり
高度3000ftの千切れ雲あり
確率 30% :
19日の 06時(UTC)から 19日の 12時(UTC)まで一時的に
視程: 4000m
霧雨, 雨
確率 40% :
20日の 04時(UTC)から 20日の 10時(UTC)まで一時的に
視程: 4000m
霧雨, 靄

TAF: DIAP 190520Z 1906/2012 24010KT 8000 SCT012 BKN040 PROB40 1906/1912 BKN010 BKN030 PROB30 TEMPO 1906/1912 4000 DZRA PROB40 TEMPO 2004/2010 4000 DZ BR

4,000以上の空港の気象観測と天気予報(METAR報とTAF報)

利用可能な観測所は地図上に黄色い丸と赤い丸で示す。

丸の上にカーソルを重ねると観測所名を参照できる。

次にクリックすると気象観測と天気予報を参照できる。

マップの切り替え:黒色「×」印の緑ボタンをクリックして拡大、「-」印の緑ボタンをクリックして縮小、緑色の三角印をクリックして隣りの地図に切り替え


METAR-TAF: